WetterOnline ( http://www.wetteronline.de )

Wetter aktuell Leipzig

Aktuelles Wetter: Leipzig-Holzhausen (138m)

6-stündlich | Neueste Meldungen
Ortszeit Temperatur Wetter
Mi, 22.08. 2:00 14.0° C leicht bewölkt
Di, 21.08. 20:00 23.1° C wolkig
Di, 21.08. 14:00 23.3° C bedeckt
Di, 21.08. 8:00 18.5° C bedeckt
Di, 21.08. 2:00 21.2° C bedeckt
Mo, 20.08. 20:00 23.6° C bedeckt
Mo, 20.08. 14:00 25.2° C bewölkt
Mo, 20.08. 8:00 19.6° C bedeckt
Ortszeit Temperatur Wetter
Mi, 22.08. 4:00 13.0° C wolkenlos
Mi, 22.08. 3:40 12.8° C wolkenlos
Mi, 22.08. 3:30 12.6° C wolkenlos
Mi, 22.08. 3:20 12.6° C wolkenlos
Mi, 22.08. 3:10 12.7° C fast wolkenlos
Mi, 22.08. 3:00 13.2° C leicht bewölkt
Mi, 22.08. 2:50 13.2° C leicht bewölkt
Mi, 22.08. 2:30 13.5° C fast wolkenlos
Mi, 22.08. 2:00 14.0° C leicht bewölkt
Mi, 22.08. 1:30 14.8° C leicht bewölkt
Mi, 22.08. 1:00 15.1° C leicht bewölkt
Ortszeit Relative Feuchte Sichtweite
Mi, 22.08. 2:00 75% 70 km
Di, 21.08. 20:00 46% 70 km
Di, 21.08. 14:00 47% 50 km
Di, 21.08. 8:00 80% 65 km
Di, 21.08. 2:00 69% 35 km
Mo, 20.08. 20:00 53% 70 km
Mo, 20.08. 14:00 48% 45 km
Mo, 20.08. 8:00 59% 35 km
Ortszeit Relative Feuchte Sichtweite
Mi, 22.08. 4:00 79% 70 km
Mi, 22.08. 3:40 80% -
Mi, 22.08. 3:30 81% 70 km
Mi, 22.08. 3:20 81% -
Mi, 22.08. 3:10 81% -
Mi, 22.08. 3:00 79% 70 km
Mi, 22.08. 2:50 79% -
Mi, 22.08. 2:30 78% 70 km
Mi, 22.08. 2:00 75% 70 km
Mi, 22.08. 1:30 72% 70 km
Mi, 22.08. 1:00 70% 70 km
Ortszeit Niederschlagsmenge Niederschlagsart
Mi, 22.08. 2:00 0.0 l/m2 in 6 Std. -
Di, 21.08. 20:00 0.1 l/m2 in 12 Std. -
Di, 21.08. 14:00 0.1 l/m2 in 6 Std. Sprühregen
Di, 21.08. 8:00 0.2 l/m2 in 12 Std. Regen
Di, 21.08. 2:00 0.0 l/m2 in 6 Std. -
Mo, 20.08. 20:00 0.0 l/m2 in 12 Std. -
Mo, 20.08. 14:00 0.0 l/m2 in 6 Std. -
Mo, 20.08. 8:00 0.0 l/m2 in 12 Std. -
Ortszeit Niederschlagsmenge Niederschlagsart
Mi, 22.08. 4:00 0.0 l/m2 in 1 Std. -
Mi, 22.08. 3:40 keine Meldung -
Mi, 22.08. 3:30 0.0 l/m2 in 1 Std. -
Mi, 22.08. 3:20 keine Meldung -
Mi, 22.08. 3:10 keine Meldung -
Mi, 22.08. 3:00 0.0 l/m2 in 1 Std. -
Mi, 22.08. 2:50 keine Meldung -
Mi, 22.08. 2:30 0.0 l/m2 in 1 Std. -
Mi, 22.08. 2:00 0.0 l/m2 in 1 Std. -
Mi, 22.08. 1:30 0.0 l/m2 in 1 Std. -
Mi, 22.08. 1:00 0.0 l/m2 in 1 Std. -
Ortszeit Stärke Spitze Richtung
km/h Bft. km/h Grad Sektor
Mi, 22.08. 2:00 0 0 14 - -
Di, 21.08. 20:00 6 1 22 350° N
Di, 21.08. 14:00 4 1 14 160° S
Di, 21.08. 8:00 7 2 14 10° N
Di, 21.08. 2:00 6 1 20 340° N
Mo, 20.08. 20:00 6 1 26 300° NW
Mo, 20.08. 14:00 13 3 31 250° W
Mo, 20.08. 8:00 4 1 11 260° W
Ortszeit Stärke Spitze Richtung
km/h Bft. km/h Grad Sektor
Mi, 22.08. 4:00 4 1 7 50° NO
Mi, 22.08. 3:40 4 1 - 70° O
Mi, 22.08. 3:30 4 1 7 40° NO
Mi, 22.08. 3:20 4 1 - 40° NO
Mi, 22.08. 3:10 4 1 - 40° NO
Mi, 22.08. 3:00 4 1 7 40° NO
Mi, 22.08. 2:50 4 1 - 40° NO
Mi, 22.08. 2:30 4 1 7 70° O
Mi, 22.08. 2:00 0 0 7 - -
Mi, 22.08. 1:30 2 1 7 60° NO
Mi, 22.08. 1:00 0 0 7 - -
Ortszeit Untergrenze Bedeckung Gattung
total tief tief mittel hoch
Mi, 22.08. 2:00 2700 m 2/8 1/8 - - -
Di, 21.08. 20:00 1500 m 6/8 - - - -
Di, 21.08. 14:00 1320 m 8/8 8/8 - - -
Di, 21.08. 8:00 1350 m 8/8 8/8 - - -
Di, 21.08. 2:00 1350 m 8/8 8/8 - - -
Mo, 20.08. 20:00 1800 m 8/8 8/8 - - -
Mo, 20.08. 14:00 1500 m 8/8 7/8 - - -
Mo, 20.08. 8:00 - 8/8 - - - -
Ortszeit Bedeckungsgrad in Achtel und Wolkenuntergrenze
Mi, 22.08. 4:00 keine Wolken
Mi, 22.08. 3:40 keine Wolken
Mi, 22.08. 3:30 1(2700m)
Mi, 22.08. 3:20 keine Wolken
Mi, 22.08. 3:10 1(3600m)
Mi, 22.08. 3:00 2(3600m)
Mi, 22.08. 2:50 2(3600m)
Mi, 22.08. 2:30 1(3600m)
Mi, 22.08. 2:00 1(2700m)
Mi, 22.08. 1:30 1(2700m) 3(3600m) 9
Mi, 22.08. 1:00 2(3600m) 9 9
Ortszeit Luftdruck NN (hPa) Tendenz (hPa in 3 Std.)
Mi, 22.08. 2:00 1021 + 0,4
Di, 21.08. 20:00 1020 - 0,5
Di, 21.08. 14:00 1021 - 0,7
Di, 21.08. 8:00 1021 + 1,4
Di, 21.08. 2:00 1020 + 0,9
Mo, 20.08. 20:00 1018 + 0,1
Mo, 20.08. 14:00 1018 0,0
Mo, 20.08. 8:00 1017 + 0,6
Ortszeit Luftdruck NN (hPa) Tendenz (hPa in 3 Std.)
Mi, 22.08. 4:00 1021 - 0,6
Mi, 22.08. 3:40 1021 keine Meldung
Mi, 22.08. 3:30 1021 - 0,5
Mi, 22.08. 3:20 1021 keine Meldung
Mi, 22.08. 3:10 1021 keine Meldung
Mi, 22.08. 3:00 1021 - 0,3
Mi, 22.08. 2:50 1021 keine Meldung
Mi, 22.08. 2:30 1021 + 0,1
Mi, 22.08. 2:00 1021 + 0,4
Mi, 22.08. 1:30 1021 + 0,4
Mi, 22.08. 1:00 1021 + 0,3
Ortszeit Schneehöhe (cm)
Mi, 22.08. 2:00 -
Di, 21.08. 20:00 -
Di, 21.08. 14:00 -
Di, 21.08. 8:00 -
Di, 21.08. 2:00 -
Mo, 20.08. 20:00 -
Mo, 20.08. 14:00 -
Mo, 20.08. 8:00 -
Ortszeit Schneehöhe (cm)
Mi, 22.08. 4:00 -
Mi, 22.08. 3:40 -
Mi, 22.08. 3:30 -
Mi, 22.08. 3:20 -
Mi, 22.08. 3:10 -
Mi, 22.08. 3:00 -
Mi, 22.08. 2:50 -
Mi, 22.08. 2:30 -
Mi, 22.08. 2:00 -
Mi, 22.08. 1:30 -
Mi, 22.08. 1:00 -
Link zu dieser Seite / Seite empfehlen

Das Wetter in ...